createdAt,value
2023-03-03T00:00:47.135Z,19.37
2023-03-03T00:05:45.646Z,11.73
2023-03-03T00:10:46.426Z,22.10
2023-03-03T00:15:45.307Z,19.80
2023-03-03T00:20:49.547Z,9.87
2023-03-03T00:25:52.813Z,13.33
2023-03-03T00:30:51.938Z,21.90
2023-03-03T00:35:50.112Z,20.77
2023-03-03T00:40:50.389Z,20.60
2023-03-03T00:45:50.515Z,21.00
2023-03-03T00:50:48.961Z,22.67
2023-03-03T00:55:50.381Z,18.10
2023-03-03T01:00:49.431Z,29.10
2023-03-03T01:05:50.712Z,24.90
2023-03-03T01:10:52.243Z,13.77
2023-03-03T01:15:51.304Z,31.90
2023-03-03T01:20:50.093Z,33.17
2023-03-03T01:25:48.285Z,21.90
2023-03-03T01:30:49.660Z,46.50
2023-03-03T01:35:48.968Z,46.53
2023-03-03T01:40:54.712Z,36.33
2023-03-03T01:46:33.177Z,49.77
2023-03-03T01:51:35.342Z,50.27
2023-03-03T01:56:34.342Z,46.00
2023-03-03T02:01:35.223Z,41.57
2023-03-03T02:06:36.493Z,39.20
2023-03-03T02:11:38.335Z,47.37
2023-03-03T02:16:38.328Z,41.40
2023-03-03T02:21:36.883Z,43.07
2023-03-03T02:26:40.677Z,41.50
2023-03-03T02:31:40.712Z,38.50
2023-03-03T02:36:40.905Z,35.20
2023-03-03T02:41:45.966Z,29.60
2023-03-03T02:46:46.449Z,38.47
2023-03-03T02:51:45.491Z,29.40
2023-03-03T02:56:45.742Z,35.17
2023-03-03T03:01:44.395Z,37.40
2023-03-03T03:06:47.069Z,37.90
2023-03-03T03:11:48.730Z,39.27
2023-03-03T03:16:50.622Z,31.20
2023-03-03T03:21:49.177Z,49.83
2023-03-03T03:26:50.131Z,36.20
2023-03-03T03:31:49.385Z,44.07
2023-03-03T03:36:47.995Z,37.43
2023-03-03T03:41:49.915Z,31.67
2023-03-03T03:46:48.527Z,31.97
2023-03-03T03:51:47.679Z,36.97
2023-03-03T03:56:50.969Z,34.90
2023-03-03T04:01:50.485Z,34.20
2023-03-03T04:06:50.148Z,37.00
2023-03-03T04:11:48.864Z,33.93
2023-03-03T04:16:48.767Z,45.87
2023-03-03T04:21:48.343Z,31.87
2023-03-03T04:26:47.099Z,47.07
2023-03-03T04:31:46.073Z,34.40
2023-03-03T04:36:46.994Z,35.17
2023-03-03T04:41:45.979Z,31.23
2023-03-03T04:46:44.645Z,34.47
2023-03-03T04:51:43.861Z,32.03
2023-03-03T04:56:45.118Z,30.60
2023-03-03T05:01:44.716Z,26.40
2023-03-03T05:06:43.565Z,28.30
2023-03-03T05:11:42.105Z,37.23
2023-03-03T05:16:41.638Z,23.13
2023-03-03T05:21:42.393Z,31.57
2023-03-03T05:26:41.961Z,33.63
2023-03-03T05:31:43.348Z,29.13
2023-03-03T05:36:42.931Z,36.80
2023-03-03T05:41:41.118Z,26.77
2023-03-03T05:46:39.677Z,27.47
2023-03-03T05:51:39.620Z,26.70
2023-03-03T05:56:38.050Z,24.33
2023-03-03T06:01:36.575Z,24.20
2023-03-03T06:06:34.764Z,25.83
2023-03-03T06:11:34.265Z,20.13
2023-03-03T06:16:32.926Z,35.30
2023-03-03T06:21:31.445Z,30.07
2023-03-03T06:26:30.116Z,25.23
2023-03-03T06:31:30.085Z,28.33
2023-03-03T06:36:28.616Z,31.67
2023-03-03T06:41:27.502Z,24.97
2023-03-03T06:46:26.218Z,25.27
2023-03-03T06:51:30.772Z,28.00
2023-03-03T06:56:29.549Z,36.57
2023-03-03T07:01:30.762Z,27.80
2023-03-03T07:06:30.600Z,40.17
2023-03-03T07:11:29.110Z,27.17
2023-03-03T07:16:29.559Z,29.77
2023-03-03T07:21:35.417Z,23.00
2023-03-03T07:26:34.786Z,30.77
2023-03-03T07:31:36.946Z,23.97
2023-03-03T07:36:38.999Z,27.90
2023-03-03T07:41:37.524Z,27.80
2023-03-03T07:46:42.734Z,26.23
2023-03-03T07:51:42.688Z,20.00
2023-03-03T07:56:41.356Z,30.97
2023-03-03T08:01:42.978Z,23.50
2023-03-03T08:06:47.960Z,23.33
2023-03-03T08:11:52.828Z,27.83
2023-03-03T08:16:51.305Z,19.43
2023-03-03T08:21:51.184Z,21.57
2023-03-03T08:26:49.668Z,19.77
2023-03-03T08:31:48.478Z,16.97
2023-03-03T08:36:47.411Z,21.77
2023-03-03T08:41:48.205Z,20.37
2023-03-03T08:46:47.137Z,19.33
2023-03-03T08:51:46.608Z,24.90
2023-03-03T08:56:46.464Z,18.97
2023-03-03T09:01:45.863Z,20.93
2023-03-03T09:06:45.520Z,20.50
2023-03-03T09:11:44.441Z,16.57
2023-03-03T09:16:51.436Z,14.17
2023-03-03T09:21:50.043Z,15.70
2023-03-03T09:26:49.518Z,15.07
2023-03-03T09:31:51.837Z,15.53
2023-03-03T09:36:51.797Z,16.90
2023-03-03T09:42:14.482Z,13.40
2023-03-03T09:47:31.236Z,17.40
2023-03-03T09:52:39.788Z,17.13
2023-03-03T09:58:10.363Z,16.03
2023-03-03T10:03:57.959Z,17.67
2023-03-03T10:09:31.977Z,16.77
2023-03-03T10:14:51.844Z,16.37
2023-03-03T10:20:02.888Z,12.17
2023-03-03T10:25:15.463Z,14.90
2023-03-03T10:30:33.213Z,10.97
2023-03-03T10:36:07.334Z,9.67
2023-03-03T10:41:19.880Z,9.83
2023-03-03T10:46:46.778Z,9.30
2023-03-03T10:51:57.911Z,10.57
2023-03-03T10:57:04.184Z,10.57
2023-03-03T11:02:09.637Z,12.13
2023-03-03T11:07:15.769Z,8.10
2023-03-03T11:12:27.891Z,11.40
2023-03-03T11:17:37.086Z,9.90
2023-03-03T11:22:48.634Z,11.70
2023-03-03T11:28:31.038Z,10.33
2023-03-03T11:33:35.719Z,14.90
2023-03-03T11:38:55.787Z,9.70
2023-03-03T11:43:56.863Z,11.77
2023-03-03T11:49:01.366Z,9.77
2023-03-03T11:54:05.111Z,9.50
2023-03-03T11:59:26.377Z,10.47
2023-03-03T12:04:33.257Z,12.10
2023-03-03T12:09:41.672Z,7.77
2023-03-03T12:15:03.214Z,11.80
2023-03-03T12:20:08.171Z,9.50
2023-03-03T12:25:25.145Z,10.37
2023-03-03T12:30:56.307Z,7.63
2023-03-03T12:36:03.012Z,9.03
2023-03-03T12:41:07.937Z,9.37
2023-03-03T12:46:12.214Z,6.30
2023-03-03T12:51:22.249Z,12.10
2023-03-03T12:56:31.849Z,8.43
2023-03-03T13:01:46.422Z,7.60
2023-03-03T13:06:49.358Z,8.80
2023-03-03T13:12:03.794Z,5.53
2023-03-03T13:17:11.902Z,8.93
2023-03-03T13:22:14.918Z,5.67
2023-03-03T13:27:17.714Z,6.87
2023-03-03T13:32:21.197Z,6.90
2023-03-03T13:37:24.298Z,6.87
2023-03-03T13:42:31.224Z,5.70
2023-03-03T13:47:38.033Z,11.73
2023-03-03T13:52:43.482Z,12.33
2023-03-03T13:57:52.287Z,8.10
2023-03-03T14:03:38.187Z,9.47
2023-03-03T14:08:57.291Z,6.37
2023-03-03T14:14:03.013Z,9.30
2023-03-03T14:25:55.717Z,6.17
2023-03-03T14:30:57.823Z,5.77
2023-03-03T14:36:13.045Z,5.00
2023-03-03T14:41:21.408Z,6.60
2023-03-03T14:46:39.999Z,4.37
2023-03-03T14:51:44.788Z,4.20
2023-03-03T14:56:58.626Z,7.57
2023-03-03T15:02:25.628Z,4.70
2023-03-03T15:07:35.237Z,4.13
2023-03-03T15:12:37.897Z,2.60
2023-03-03T15:17:39.253Z,2.40
2023-03-03T15:22:49.527Z,4.20
2023-03-03T15:27:53.371Z,2.63
2023-03-03T15:32:59.834Z,11.43
2023-03-03T15:38:04.284Z,3.13
2023-03-03T15:43:14.656Z,5.57
2023-03-03T15:48:34.496Z,3.53
2023-03-03T15:54:08.685Z,4.47
2023-03-03T15:59:30.725Z,1.30
2023-03-03T16:04:35.916Z,3.33
2023-03-03T16:09:47.904Z,3.57
2023-03-03T16:15:06.055Z,3.37
2023-03-03T16:20:21.025Z,3.70
2023-03-03T16:25:37.680Z,2.77
2023-03-03T16:30:41.463Z,2.47
2023-03-03T16:35:46.140Z,2.10
2023-03-03T16:40:51.443Z,2.00
2023-03-03T16:45:51.095Z,2.03
2023-03-03T16:51:00.341Z,1.23
2023-03-03T16:56:08.459Z,1.70
2023-03-03T17:01:15.750Z,4.40
2023-03-03T17:06:22.485Z,1.70
2023-03-03T17:11:29.329Z,3.83
2023-03-03T17:16:51.218Z,3.90
2023-03-03T17:22:05.691Z,2.87
2023-03-03T17:27:14.175Z,2.37
2023-03-03T17:32:27.106Z,3.93
2023-03-03T17:37:38.372Z,3.10
2023-03-03T17:42:47.800Z,1.57
2023-03-03T17:47:58.787Z,2.20
2023-03-03T17:53:26.972Z,2.03
2023-03-03T17:59:01.183Z,5.50
2023-03-03T18:04:56.418Z,3.07
2023-03-03T18:10:18.366Z,4.97
2023-03-03T18:15:34.828Z,4.33
2023-03-03T18:20:50.000Z,4.00
2023-03-03T18:25:58.222Z,6.20
2023-03-03T18:31:00.444Z,5.07
2023-03-03T18:36:10.839Z,3.33
2023-03-03T18:41:13.684Z,4.40
2023-03-03T18:46:34.194Z,9.83
2023-03-03T18:58:44.531Z,4.20
2023-03-03T19:04:02.266Z,10.03
2023-03-03T19:09:00.874Z,7.37
2023-03-03T19:19:24.804Z,5.33
2023-03-03T19:25:02.288Z,12.60
2023-03-03T19:30:21.199Z,8.63
2023-03-03T19:35:28.545Z,4.80
2023-03-03T19:40:32.517Z,7.20
2023-03-03T19:45:47.181Z,10.80
2023-03-03T19:50:53.765Z,5.93
2023-03-03T19:56:19.314Z,11.90
2023-03-03T20:01:24.777Z,20.83
2023-03-03T20:06:36.756Z,16.83
2023-03-03T20:11:50.196Z,18.33
2023-03-03T20:16:50.652Z,6.60
2023-03-03T20:22:00.820Z,7.53
2023-03-03T20:27:04.782Z,7.57
2023-03-03T20:32:07.688Z,5.80
2023-03-03T20:37:11.877Z,14.63
2023-03-03T20:42:19.590Z,12.83
2023-03-03T20:47:28.307Z,18.23
2023-03-03T20:52:38.566Z,8.10
2023-03-03T20:57:47.325Z,5.37
2023-03-03T21:02:52.680Z,14.23
2023-03-03T21:07:57.833Z,13.80
2023-03-03T21:12:57.937Z,14.40
2023-03-03T21:18:59.371Z,9.60
2023-03-03T21:23:59.627Z,20.60
2023-03-03T21:29:03.562Z,18.40
2023-03-03T21:34:02.184Z,7.20
2023-03-03T21:39:02.488Z,5.53
2023-03-03T21:44:01.050Z,14.03
2023-03-03T21:48:59.534Z,14.43
2023-03-03T21:53:58.035Z,9.97
2023-03-03T21:58:57.906Z,13.40
2023-03-03T22:03:56.142Z,16.30
2023-03-03T22:08:54.626Z,3.60
2023-03-03T22:13:53.132Z,9.37
2023-03-03T22:18:52.993Z,18.67
2023-03-03T22:23:51.526Z,2.90
2023-03-03T22:28:50.390Z,12.03
2023-03-03T22:33:49.894Z,14.93
2023-03-03T22:38:49.648Z,12.53
2023-03-03T22:43:48.363Z,14.87
2023-03-03T22:48:46.829Z,14.10
2023-03-03T22:53:45.312Z,8.53
2023-03-03T22:58:45.124Z,12.83
2023-03-03T23:03:43.370Z,19.63
2023-03-03T23:08:41.865Z,17.07
2023-03-03T23:13:40.364Z,12.00
2023-03-03T23:18:40.206Z,10.50
2023-03-03T23:23:38.809Z,6.53
2023-03-03T23:28:37.337Z,6.93
2023-03-03T23:33:35.785Z,7.27
2023-03-03T23:38:35.583Z,4.83
2023-03-03T23:43:34.234Z,9.07
2023-03-03T23:48:32.695Z,3.77
2023-03-03T23:53:31.149Z,5.93
2023-03-03T23:58:31.184Z,12.23
